Time;durP1;ratioP1;P1;durP2;ratioP2;P2;SDS_P1;SDS_P2;PMS_P1;PMS_P2;Temp;Humidity;BMP_temperature;BMP_pressure;BME280_temperature;BME280_humidity;BME280_pressure;Samples;Min_cycle;Max_cycle;Signal;HPM_P1;HPM_P2
2021/12/03 00:01:49;;;;;;;3.50;1.80;;;;;;;-1.72;76.91;98164.75;104181;1304;24172;-26
2021/12/03 00:04:15;;;;;;;4.40;1.50;;;;;;;-1.67;76.61;98165.20;104107;1304;24388;-29
2021/12/03 00:06:42;;;;;;;4.80;1.50;;;;;;;-1.75;76.82;98167.33;104185;1310;24168;-30
2021/12/03 00:09:08;;;;;;;1.20;0.70;;;;;;;-1.83;77.81;98168.10;104235;1304;24227;-30
2021/12/03 00:11:34;;;;;;;6.50;1.30;;;;;;;-1.89;78.19;98173.10;104127;1308;24279;-29
2021/12/03 00:14:00;;;;;;;33.10;1.70;;;;;;;-1.82;77.81;98168.96;104154;1305;24147;-28
2021/12/03 00:16:26;;;;;;;3.10;0.80;;;;;;;-1.79;78.03;98177.20;104174;1304;24252;-25
2021/12/03 00:18:52;;;;;;;3.50;0.70;;;;;;;-1.83;78.01;98180.55;104102;1308;24180;-29
2021/12/03 00:21:18;;;;;;;11.10;3.00;;;;;;;-1.92;78.69;98181.98;104121;1310;24276;-29
2021/12/03 00:23:43;;;;;;;6.20;1.20;;;;;;;-1.79;77.91;98187.55;104182;1310;24242;-25
2021/12/03 00:26:10;;;;;;;3.10;1.10;;;;;;;-1.95;78.71;98187.34;104148;1309;24224;-27
2021/12/03 00:28:36;;;;;;;3.70;1.60;;;;;;;-2.03;79.28;98185.50;104196;1304;24166;-25
2021/12/03 00:31:02;;;;;;;10.80;2.10;;;;;;;-2.18;79.95;98182.89;104214;1309;24162;-24
2021/12/03 00:33:30;;;;;;;8.60;1.90;;;;;;;-2.14;80.14;98194.06;104209;1300;24266;-28
2021/12/03 00:35:56;;;;;;;4.30;2.40;;;;;;;-2.14;80.06;98207.59;104211;1304;24186;-27
2021/12/03 00:38:22;;;;;;;3.60;1.40;;;;;;;-1.96;79.28;98205.68;104110;1304;24214;-30
2021/12/03 00:40:47;;;;;;;0.90;0.50;;;;;;;-1.91;78.74;98210.84;104182;1310;24186;-24
2021/12/03 00:43:14;;;;;;;7.00;0.90;;;;;;;-1.94;79.15;98213.42;104090;1308;24287;-24
2021/12/03 00:45:42;;;;;;;0.60;0.40;;;;;;;-1.98;79.18;98219.38;104149;1310;24150;-28
2021/12/03 00:48:08;;;;;;;1.80;0.90;;;;;;;-2.12;79.76;98223.57;104194;1310;24281;-28
2021/12/03 00:50:34;;;;;;;3.20;0.90;;;;;;;-2.08;80.11;98228.23;104182;1310;24177;-28
2021/12/03 00:53:00;;;;;;;5.80;1.00;;;;;;;-2.17;80.30;98234.35;104166;1304;24163;-25
2021/12/03 00:55:27;;;;;;;1.20;0.90;;;;;;;-2.09;80.21;98232.89;104272;1304;24312;-25
2021/12/03 00:57:53;;;;;;;2.00;1.10;;;;;;;-2.10;80.49;98232.46;104106;1304;22438;-29
2021/12/03 01:00:23;;;;;;;0.30;0.30;;;;;;;-2.20;80.24;98232.11;104268;1309;24222;-30
2021/12/03 01:02:50;;;;;;;1.50;0.70;;;;;;;-2.17;80.56;98238.04;104166;1308;22470;-29
2021/12/03 01:05:16;;;;;;;3.90;1.20;;;;;;;-2.13;80.93;98240.04;104195;1304;24170;-28
2021/12/03 01:07:42;;;;;;;1.50;0.60;;;;;;;-2.09;80.72;98249.48;104228;1310;24271;-25
2021/12/03 01:10:08;;;;;;;5.60;1.40;;;;;;;-2.21;80.95;98254.14;104167;1310;22461;-28
2021/12/03 01:12:35;;;;;;;3.30;1.30;;;;;;;-2.14;80.68;98251.81;104160;1305;24341;-28
2021/12/03 01:15:01;;;;;;;2.50;1.20;;;;;;;-2.17;80.96;98262.59;104157;1310;24289;-29
2021/12/03 01:17:27;;;;;;;3.00;1.10;;;;;;;-2.01;80.37;98258.54;104174;1304;24141;-29
2021/12/03 01:19:53;;;;;;;3.50;0.80;;;;;;;-2.15;80.83;98260.82;104210;1310;24296;-28
2021/12/03 01:22:18;;;;;;;3.50;1.80;;;;;;;-2.04;80.91;98270.98;104200;1301;22667;-27
2021/12/03 01:24:44;;;;;;;4.80;0.90;;;;;;;-1.90;80.13;98268.58;104184;1305;24152;-24
2021/12/03 01:27:10;;;;;;;2.20;1.20;;;;;;;-2.06;80.67;98268.54;104276;1310;24250;-25
2021/12/03 01:29:36;;;;;;;2.60;0.70;;;;;;;-1.87;80.18;98271.51;104257;1305;24290;-28
2021/12/03 01:32:02;;;;;;;11.80;1.60;;;;;;;-2.05;81.24;98273.58;104260;1308;24180;-25
2021/12/03 01:34:27;;;;;;;5.40;1.20;;;;;;;-1.98;81.49;98275.27;104194;1310;24143;-29
2021/12/03 01:36:53;;;;;;;3.00;0.80;;;;;;;-2.03;81.70;98272.45;104161;1304;24201;-25
2021/12/03 01:39:19;;;;;;;10.30;1.30;;;;;;;-1.89;81.51;98270.45;104153;1308;24395;-25
2021/12/03 01:41:45;;;;;;;3.40;1.30;;;;;;;-1.72;80.65;98273.95;104159;1310;24179;-25
2021/12/03 01:44:10;;;;;;;1.10;0.70;;;;;;;-1.71;80.35;98277.69;104229;1310;24168;-29
2021/12/03 01:46:36;;;;;;;7.10;1.10;;;;;;;-1.65;80.45;98279.96;104237;1308;24163;-26
2021/12/03 01:49:02;;;;;;;2.40;1.10;;;;;;;-1.64;80.01;98279.64;104210;1310;24233;-25
2021/12/03 01:51:29;;;;;;;1.60;0.80;;;;;;;-1.55;79.54;98280.52;104196;1309;24349;-24
2021/12/03 01:53:55;;;;;;;2.50;1.20;;;;;;;-1.51;79.11;98285.36;104115;1304;24286;-27
2021/12/03 01:56:21;;;;;;;6.90;1.80;;;;;;;-1.53;79.40;98284.34;104201;1304;22502;-25
2021/12/03 01:58:48;;;;;;;2.50;1.00;;;;;;;-1.60;79.73;98287.35;104219;1307;22486;-28
2021/12/03 02:01:16;;;;;;;1.50;1.10;;;;;;;-1.59;80.22;98292.53;104186;1306;24313;-25
2021/12/03 02:03:43;;;;;;;5.70;1.30;;;;;;;-1.41;79.31;98295.32;104179;1310;24271;-24
2021/12/03 02:06:10;;;;;;;9.90;0.70;;;;;;;-1.26;78.40;98304.73;104204;1310;24153;-28
2021/12/03 02:08:36;;;;;;;3.70;0.80;;;;;;;-1.46;79.30;98311.23;104185;1310;24271;-28
2021/12/03 02:11:04;;;;;;;2.40;0.90;;;;;;;-1.54;80.49;98312.08;104188;1300;24255;-28
2021/12/03 02:13:30;;;;;;;2.90;1.50;;;;;;;-1.41;79.97;98314.17;104205;1308;24274;-25
2021/12/03 02:15:56;;;;;;;1.20;0.70;;;;;;;-1.44;79.96;98318.23;104170;1310;24156;-28
2021/12/03 02:18:22;;;;;;;4.30;1.30;;;;;;;-1.23;79.49;98322.19;104174;1310;24174;-26
2021/12/03 02:20:48;;;;;;;6.30;1.20;;;;;;;-1.20;79.24;98325.77;104186;1304;24227;-25
2021/12/03 02:23:14;;;;;;;2.30;0.80;;;;;;;-1.33;79.76;98334.39;104187;1304;24223;-25
2021/12/03 02:25:41;;;;;;;7.90;0.80;;;;;;;-1.23;79.84;98336.10;104203;1308;24123;-29
2021/12/03 02:28:08;;;;;;;2.30;1.40;;;;;;;-1.37;80.20;98336.89;103848;1310;624531;-25
2021/12/03 02:30:34;;;;;;;1.50;0.40;;;;;;;-1.33;80.46;98343.39;104194;1304;24326;-25
2021/12/03 02:33:00;;;;;;;1.50;0.60;;;;;;;-1.36;80.83;98346.13;104148;1310;24163;-28
2021/12/03 02:35:26;;;;;;;2.30;1.50;;;;;;;-1.47;80.78;98346.52;104184;1310;24289;-28
2021/12/03 02:37:52;;;;;;;0.80;0.60;;;;;;;-1.48;81.17;98354.09;104166;1304;24144;-29
2021/12/03 02:40:18;;;;;;;2.90;0.90;;;;;;;-1.22;80.52;98360.38;104078;1303;24279;-25
2021/12/03 02:42:44;;;;;;;3.10;1.80;;;;;;;-1.05;79.02;98361.26;104224;1304;24251;-25
2021/12/03 02:45:10;;;;;;;0.90;0.40;;;;;;;-0.99;78.56;98364.69;104176;1304;24153;-29
2021/12/03 02:47:36;;;;;;;0.70;0.50;;;;;;;-1.08;79.41;98370.46;104156;1310;24141;-25
2021/12/03 02:50:03;;;;;;;2.30;1.30;;;;;;;-1.11;79.36;98372.02;104210;1304;24271;-28
2021/12/03 02:52:29;;;;;;;2.90;0.60;;;;;;;-1.04;79.00;98374.54;104217;1309;24280;-28
2021/12/03 02:54:54;;;;;;;3.90;1.60;;;;;;;-1.08;78.93;98378.04;104193;1304;24167;-27
2021/12/03 02:57:20;;;;;;;2.00;1.10;;;;;;;-1.18;79.25;98381.67;104172;1309;24203;-28
2021/12/03 02:59:46;;;;;;;3.10;1.40;;;;;;;-1.21;79.73;98378.08;103850;1308;24208;-28
2021/12/03 03:02:12;;;;;;;1.10;0.50;;;;;;;-1.28;80.13;98379.30;104169;1309;24237;-24
2021/12/03 03:04:38;;;;;;;2.50;0.70;;;;;;;-1.30;80.35;98384.17;104187;1305;24177;-24
2021/12/03 03:07:04;;;;;;;3.80;1.10;;;;;;;-1.38;80.82;98392.16;104140;1310;24151;-24
2021/12/03 03:09:31;;;;;;;2.80;1.10;;;;;;;-1.50;81.70;98398.86;104066;1310;22467;-28
2021/12/03 03:11:58;;;;;;;4.40;1.00;;;;;;;-1.42;80.88;98404.10;104152;1310;24149;-25
2021/12/03 03:14:25;;;;;;;2.00;1.00;;;;;;;-1.41;80.83;98410.02;104214;1304;22460;-25
2021/12/03 03:16:51;;;;;;;4.70;0.80;;;;;;;-1.57;81.39;98418.52;104146;1310;24252;-28
2021/12/03 03:19:20;;;;;;;18.60;4.90;;;;;;;-1.64;81.75;98416.05;104208;1310;24178;-28
2021/12/03 03:21:46;;;;;;;4.60;1.40;;;;;;;-1.71;82.13;98416.48;104193;1304;23597;-24
2021/12/03 03:24:12;;;;;;;6.40;1.00;;;;;;;-1.70;81.83;98422.21;104144;1310;22473;-25
2021/12/03 03:26:41;;;;;;;0.90;0.50;;;;;;;-2.00;83.37;98429.73;104135;1308;24138;-25
2021/12/03 03:29:08;;;;;;;12.90;1.70;;;;;;;-2.05;83.75;98435.75;104191;1309;24227;-24
2021/12/03 03:31:34;;;;;;;1.70;1.20;;;;;;;-2.11;83.98;98443.88;104226;1304;24182;-24
2021/12/03 03:34:00;;;;;;;5.10;1.10;;;;;;;-2.18;84.41;98448.02;104103;1304;23988;-24
2021/12/03 03:36:26;;;;;;;4.80;1.40;;;;;;;-2.38;85.37;98447.70;104165;1304;24183;-28
2021/12/03 03:38:52;;;;;;;5.70;0.90;;;;;;;-2.44;85.49;98445.09;104170;1309;22467;-29
2021/12/03 03:41:17;;;;;;;0.90;0.40;;;;;;;-2.35;85.43;98450.57;104146;1309;24384;-28
2021/12/03 03:43:43;;;;;;;1.20;0.50;;;;;;;-2.45;85.39;98447.80;104216;1309;22541;-28
2021/12/03 03:46:09;;;;;;;2.40;0.90;;;;;;;-2.41;85.37;98455.18;104176;1308;24172;-24
2021/12/03 03:48:35;;;;;;;2.80;0.90;;;;;;;-2.51;85.83;98458.66;104153;1310;24177;-28
2021/12/03 03:51:02;;;;;;;4.90;0.70;;;;;;;-2.50;85.55;98465.26;104191;1304;24164;-28
2021/12/03 03:53:28;;;;;;;0.90;0.60;;;;;;;-2.44;85.44;98472.98;104231;1304;24148;-28
2021/12/03 03:55:54;;;;;;;1.90;0.70;;;;;;;-2.26;84.92;98475.52;104150;1308;24279;-30
2021/12/03 03:58:19;;;;;;;1.00;0.60;;;;;;;-2.10;84.07;98482.05;104204;1309;24167;-27
2021/12/03 04:00:46;;;;;;;6.10;1.10;;;;;;;-2.14;84.45;98484.09;104109;1310;24153;-25
2021/12/03 04:03:12;;;;;;;11.10;0.80;;;;;;;-1.97;83.91;98483.81;104180;1304;24204;-28
2021/12/03 04:05:38;;;;;;;1.20;0.60;;;;;;;-2.06;84.16;98482.89;104144;1304;24294;-24
2021/12/03 04:08:04;;;;;;;2.20;0.70;;;;;;;-2.01;84.04;98481.73;104088;1304;22473;-24
2021/12/03 04:10:30;;;;;;;2.10;0.90;;;;;;;-1.98;83.58;98474.95;104180;1310;24262;-24
2021/12/03 04:12:56;;;;;;;6.40;1.90;;;;;;;-1.59;81.93;98477.48;104182;1304;24148;-24
2021/12/03 04:15:22;;;;;;;9.30;1.40;;;;;;;-1.75;82.44;98483.20;104194;1309;24263;-28
2021/12/03 04:17:48;;;;;;;3.20;1.10;;;;;;;-1.75;82.38;98488.96;104192;1304;24464;-24
2021/12/03 04:20:15;;;;;;;5.00;0.80;;;;;;;-1.93;83.15;98491.12;104072;1304;24137;-28
2021/12/03 04:22:41;;;;;;;2.60;1.10;;;;;;;-1.68;82.66;98498.13;104143;1304;22707;-28
2021/12/03 04:25:08;;;;;;;1.70;0.90;;;;;;;-1.58;81.77;98503.05;104220;1310;22650;-28
2021/12/03 04:27:34;;;;;;;5.10;1.40;;;;;;;-1.63;82.34;98505.08;104154;1302;24204;-29
2021/12/03 04:30:02;;;;;;;3.30;0.80;;;;;;;-1.76;83.00;98512.42;104223;1308;24275;-25
2021/12/03 04:32:28;;;;;;;5.10;0.80;;;;;;;-1.85;83.61;98519.19;104155;1309;24411;-28
2021/12/03 04:34:53;;;;;;;2.10;1.10;;;;;;;-2.03;84.65;98521.05;104146;1304;24284;-25
2021/12/03 04:37:19;;;;;;;0.80;0.50;;;;;;;-1.86;84.27;98524.55;104135;1309;24182;-24
2021/12/03 04:39:45;;;;;;;4.80;1.60;;;;;;;-1.77;83.67;98532.30;104218;1304;24167;-24
2021/12/03 04:42:11;;;;;;;4.40;1.30;;;;;;;-1.68;82.94;98535.02;103858;1304;22567;-24
2021/12/03 04:44:37;;;;;;;2.00;0.70;;;;;;;-1.69;82.71;98537.62;104159;1304;24203;-24
2021/12/03 04:47:03;;;;;;;6.40;1.90;;;;;;;-1.95;84.45;98541.70;104106;1309;24302;-24
2021/12/03 04:49:30;;;;;;;5.00;2.20;;;;;;;-1.80;84.07;98540.33;104223;1304;24263;-25
2021/12/03 04:51:56;;;;;;;1.90;0.50;;;;;;;-1.75;83.80;98543.86;104155;1310;24279;-26
2021/12/03 04:54:22;;;;;;;4.00;0.60;;;;;;;-1.71;83.32;98542.46;104186;1308;24308;-23
2021/12/03 04:56:48;;;;;;;2.60;1.10;;;;;;;-1.78;83.41;98544.00;104127;1304;24171;-28
2021/12/03 04:59:14;;;;;;;1.40;0.80;;;;;;;-1.57;82.85;98547.91;104240;1309;24274;-24
2021/12/03 05:01:40;;;;;;;4.40;1.40;;;;;;;-1.75;83.24;98554.61;104207;1309;24573;-25
2021/12/03 05:04:06;;;;;;;2.00;1.30;;;;;;;-1.60;82.61;98558.70;104038;1310;24190;-28
2021/12/03 05:06:53;;;;;;;1.90;0.70;;;;;;;-1.74;83.80;98559.95;104118;1304;24167;-25
2021/12/03 05:09:18;;;;;;;4.60;1.50;;;;;;;-1.87;83.96;98564.33;104161;1304;24157;-25
2021/12/03 05:11:44;;;;;;;1.60;0.80;;;;;;;-2.15;85.49;98564.51;104183;1304;24153;-29
2021/12/03 05:14:10;;;;;;;7.50;2.50;;;;;;;-1.94;84.87;98565.41;104198;1304;24133;-28
2021/12/03 05:16:35;;;;;;;6.10;1.20;;;;;;;-1.77;84.01;98572.48;104157;1309;24280;-29
2021/12/03 05:19:01;;;;;;;4.70;1.10;;;;;;;-2.09;85.87;98571.02;104095;1308;24157;-28
2021/12/03 05:21:27;;;;;;;1.20;0.80;;;;;;;-2.03;85.73;98567.81;104113;1309;22439;-30
2021/12/03 05:23:53;;;;;;;4.20;1.30;;;;;;;-2.12;85.97;98572.20;104159;1304;24177;-25
2021/12/03 05:26:19;;;;;;;2.20;1.00;;;;;;;-1.75;84.62;98571.99;104170;1308;22467;-28
2021/12/03 05:28:45;;;;;;;3.50;1.10;;;;;;;-1.97;84.95;98577.52;103868;1305;24180;-25
2021/12/03 05:31:11;;;;;;;13.20;1.40;;;;;;;-2.00;85.14;98576.15;104115;1305;24177;-24
2021/12/03 05:33:37;;;;;;;3.70;2.00;;;;;;;-1.80;84.11;98579.23;104042;1304;24143;-24
2021/12/03 05:36:03;;;;;;;5.00;2.40;;;;;;;-1.75;83.42;98584.79;104182;1310;24200;-24
2021/12/03 05:38:29;;;;;;;6.60;0.80;;;;;;;-1.77;83.41;98590.09;104233;1304;24222;-28
2021/12/03 05:40:55;;;;;;;4.60;1.00;;;;;;;-2.12;85.06;98591.43;104179;1305;24163;-25
2021/12/03 05:43:21;;;;;;;4.00;1.10;;;;;;;-2.10;85.66;98591.27;104218;1304;22477;-25
2021/12/03 05:45:47;;;;;;;3.40;1.80;;;;;;;-2.12;85.21;98599.03;104265;1310;24293;-29
2021/12/03 05:48:13;;;;;;;2.40;1.20;;;;;;;-1.95;84.60;98599.92;104195;1310;24164;-25
2021/12/03 05:50:40;;;;;;;9.00;2.00;;;;;;;-2.06;84.81;98598.84;104204;1304;24266;-26
2021/12/03 05:53:06;;;;;;;11.80;0.90;;;;;;;-1.92;84.69;98599.81;104187;1305;24271;-27
2021/12/03 05:55:32;;;;;;;2.40;1.00;;;;;;;-2.03;85.18;98602.21;104239;1304;24153;-27
2021/12/03 05:57:58;;;;;;;14.20;4.70;;;;;;;-2.19;85.87;98608.71;104288;1304;24331;-28
2021/12/03 06:00:27;;;;;;;9.30;5.00;;;;;;;-2.24;85.73;98610.00;104191;1304;24295;-30
2021/12/03 06:02:53;;;;;;;6.30;2.40;;;;;;;-2.51;87.29;98610.79;104178;1304;22555;-29
2021/12/03 06:05:21;;;;;;;2.90;0.90;;;;;;;-2.47;87.31;98609.61;104134;1298;24196;-28
2021/12/03 06:07:47;;;;;;;4.60;1.30;;;;;;;-2.54;88.08;98615.30;104219;1304;24167;-30
2021/12/03 06:10:13;;;;;;;4.20;1.10;;;;;;;-2.58;87.72;98619.67;104159;1306;22461;-25
2021/12/03 06:12:39;;;;;;;3.30;2.10;;;;;;;-2.63;88.60;98623.95;104135;1304;24279;-28
2021/12/03 06:15:05;;;;;;;6.00;1.20;;;;;;;-2.61;88.39;98631.67;104122;1308;24143;-29
2021/12/03 06:17:31;;;;;;;5.90;1.00;;;;;;;-2.60;88.69;98637.07;104185;1304;24198;-29
2021/12/03 06:19:57;;;;;;;4.60;1.00;;;;;;;-2.59;89.34;98641.34;104444;1304;24296;-26
2021/12/03 06:22:23;;;;;;;2.20;0.90;;;;;;;-2.53;89.53;98644.83;104283;1302;22489;-29
2021/12/03 06:24:49;;;;;;;6.50;1.20;;;;;;;-2.42;88.61;98648.98;104475;1304;22576;-31
2021/12/03 06:27:14;;;;;;;4.50;2.50;;;;;;;-2.45;89.04;98643.77;104123;1304;24249;-27
2021/12/03 06:29:40;;;;;;;2.80;1.20;;;;;;;-2.26;88.23;98648.42;104225;1303;24174;-26
2021/12/03 06:32:10;;;;;;;3.00;0.60;;;;;;;-2.39;88.53;98653.05;104182;1304;24160;-25
2021/12/03 06:34:37;;;;;;;9.90;1.30;;;;;;;-2.31;87.99;98654.15;104213;1304;26181;-29
2021/12/03 06:37:03;;;;;;;6.40;2.00;;;;;;;-2.26;87.20;98658.40;104097;1304;24214;-25
2021/12/03 06:39:29;;;;;;;2.10;1.10;;;;;;;-2.44;88.09;98664.91;104176;1304;22684;-25
2021/12/03 06:41:55;;;;;;;5.40;1.80;;;;;;;-2.27;87.45;98666.09;104164;1303;22615;-26
2021/12/03 06:44:22;;;;;;;3.00;1.00;;;;;;;-2.45;87.67;98672.48;104154;1304;24309;-24
2021/12/03 06:46:49;;;;;;;1.40;0.80;;;;;;;-2.46;87.54;98677.70;104135;1305;24141;-28
2021/12/03 06:49:14;;;;;;;1.90;1.10;;;;;;;-2.74;88.98;98684.67;104123;1305;24330;-29
2021/12/03 06:51:42;;;;;;;4.00;0.90;;;;;;;-2.74;88.81;98689.38;104164;1304;24141;-29
2021/12/03 06:54:09;;;;;;;4.90;1.20;;;;;;;-2.84;89.59;98693.73;104185;1309;24177;-28
2021/12/03 06:59:04;;;;;;;9.70;2.80;;;;;;;-2.66;89.15;98704.51;104150;1302;24029;-25
2021/12/03 07:01:30;;;;;;;13.80;2.30;;;;;;;-2.54;88.53;98701.33;104166;1304;24231;-25
2021/12/03 07:03:55;;;;;;;7.00;2.00;;;;;;;-2.57;88.22;98705.23;104151;1304;24293;-25
2021/12/03 07:06:21;;;;;;;17.60;2.80;;;;;;;-2.45;87.80;98704.97;104143;1304;24156;-24
2021/12/03 07:08:47;;;;;;;4.80;1.40;;;;;;;-2.66;88.61;98707.58;104152;1297;24381;-25
2021/12/03 07:11:13;;;;;;;6.90;2.40;;;;;;;-2.62;88.69;98710.64;104076;1302;24272;-24
2021/12/03 07:13:39;;;;;;;12.80;1.70;;;;;;;-2.66;88.93;98713.90;104160;1304;24167;-29
2021/12/03 07:16:05;;;;;;;9.10;2.80;;;;;;;-2.72;89.49;98714.39;104125;1304;24255;-25
2021/12/03 07:18:31;;;;;;;3.20;1.10;;;;;;;-2.24;87.80;98706.85;104175;1305;24263;-29
2021/12/03 07:20:57;;;;;;;4.40;2.10;;;;;;;-2.55;88.55;98716.70;104144;1304;24181;-25
2021/12/03 07:23:22;;;;;;;6.20;4.60;;;;;;;-2.49;88.73;98721.92;104110;1304;24162;-24
2021/12/03 07:25:48;;;;;;;10.60;2.20;;;;;;;-2.33;87.78;98724.42;104155;1304;24283;-25
2021/12/03 07:28:16;;;;;;;1.70;1.30;;;;;;;-2.20;87.19;98732.41;104085;1301;24296;-25
2021/12/03 07:30:42;;;;;;;4.60;2.00;;;;;;;-2.36;88.36;98734.52;104139;1304;24326;-24
2021/12/03 07:33:12;;;;;;;4.60;2.00;;;;;;;-2.20;88.04;98738.55;104207;1308;24154;-28
2021/12/03 07:35:38;;;;;;;7.20;2.70;;;;;;;-2.25;88.07;98741.27;104196;1304;22470;-25
2021/12/03 07:38:03;;;;;;;15.30;2.70;;;;;;;-2.16;87.37;98746.10;104145;1304;24320;-29
2021/12/03 07:40:29;;;;;;;4.00;1.80;;;;;;;-2.06;87.11;98748.96;104088;1304;24170;-28
2021/12/03 07:42:55;;;;;;;6.20;2.30;;;;;;;-2.02;86.67;98752.08;104199;1304;24265;-25
2021/12/03 07:45:21;;;;;;;8.70;2.00;;;;;;;-2.14;87.04;98755.96;104142;1304;24141;-29
2021/12/03 07:47:47;;;;;;;4.10;1.60;;;;;;;-2.02;86.76;98754.07;104083;1304;24398;-29
2021/12/03 07:50:13;;;;;;;2.40;1.20;;;;;;;-2.04;86.72;98764.23;104179;1308;22447;-27
2021/12/03 07:52:39;;;;;;;3.70;1.20;;;;;;;-1.90;86.33;98763.70;104129;1304;24147;-28
2021/12/03 07:55:05;;;;;;;1.90;1.10;;;;;;;-1.92;85.88;98767.55;104198;1304;24404;-29
2021/12/03 07:57:31;;;;;;;3.10;1.50;;;;;;;-2.06;86.34;98774.25;104263;1304;24161;-29
2021/12/03 07:59:57;;;;;;;1.90;1.10;;;;;;;-1.97;86.01;98772.35;104206;1304;22467;-25
2021/12/03 08:02:24;;;;;;;13.40;5.30;;;;;;;-1.94;85.81;98774.08;104135;1304;24395;-27
2021/12/03 08:04:50;;;;;;;9.50;2.80;;;;;;;-1.92;85.26;98775.05;104162;1300;24289;-25
2021/12/03 08:07:15;;;;;;;7.50;1.70;;;;;;;-1.73;85.03;98771.55;104075;1304;24134;-26
2021/12/03 08:09:41;;;;;;;4.40;1.40;;;;;;;-1.63;84.09;98767.99;104208;1304;24407;-24
2021/12/03 08:12:09;;;;;;;3.90;1.40;;;;;;;-1.41;82.85;98767.09;104129;1304;24172;-24
2021/12/03 08:14:34;;;;;;;3.70;1.20;;;;;;;-1.51;82.59;98761.84;103952;1310;24163;-28
2021/12/03 08:17:00;;;;;;;14.00;1.50;;;;;;;-1.59;83.16;98757.50;104061;1304;24302;-24
2021/12/03 08:19:26;;;;;;;4.70;2.50;;;;;;;-1.53;82.58;98760.44;104139;1304;24162;-25
2021/12/03 08:21:52;;;;;;;3.00;2.10;;;;;;;-1.59;82.38;98768.02;104124;1304;24279;-28
2021/12/03 08:24:18;;;;;;;2.30;0.90;;;;;;;-1.47;81.77;98762.48;104118;1304;24333;-28
2021/12/03 08:26:43;;;;;;;4.60;1.50;;;;;;;-1.25;80.97;98761.19;104161;1304;24272;-28
2021/12/03 08:29:10;;;;;;;4.30;0.90;;;;;;;-1.03;80.44;98759.16;104139;1304;24185;-29
2021/12/03 08:31:37;;;;;;;2.30;1.00;;;;;;;-0.72;78.86;98757.59;104155;1304;24186;-26
2021/12/03 08:34:03;;;;;;;3.00;1.00;;;;;;;-0.66;77.85;98757.32;104200;1304;24148;-25
2021/12/03 08:36:29;;;;;;;1.60;0.70;;;;;;;-0.41;77.10;98765.09;104126;1308;24369;-25
2021/12/03 08:38:56;;;;;;;2.30;0.60;;;;;;;-0.18;76.04;98761.91;104164;1304;24125;-25
2021/12/03 08:41:22;;;;;;;2.50;1.50;;;;;;;-0.07;74.56;98763.15;104047;1305;24144;-28
2021/12/03 08:43:48;;;;;;;4.40;1.20;;;;;;;0.12;72.26;98771.70;104180;1308;25269;-25
2021/12/03 08:46:24;;;;;;;1.60;0.80;;;;;;;0.21;72.06;98782.09;104092;1303;24195;-25
2021/12/03 08:48:50;;;;;;;0.50;0.30;;;;;;;0.39;70.88;98783.00;104102;1308;24144;-29
2021/12/03 08:51:29;;;;;;;3.90;1.20;;;;;;;0.20;71.39;98786.94;104134;1304;24277;-25
2021/12/03 08:56:24;;;;;;;5.40;1.30;;;;;;;0.57;69.23;98787.61;104198;1308;24177;-25
2021/12/03 08:58:50;;;;;;;3.40;2.00;;;;;;;0.46;69.05;98784.08;104200;1304;24295;-26
2021/12/03 09:01:16;;;;;;;7.30;2.30;;;;;;;0.46;68.13;98785.23;104127;1304;24170;-28
2021/12/03 09:03:41;;;;;;;5.50;3.20;;;;;;;0.36;69.26;98784.89;104148;1304;24167;-25
2021/12/03 09:06:07;;;;;;;1.40;0.70;;;;;;;0.77;67.21;98781.81;104129;1305;24587;-28
2021/12/03 09:08:33;;;;;;;1.60;0.70;;;;;;;0.48;69.48;98775.98;104344;1304;24361;-31
2021/12/03 09:10:59;;;;;;;7.10;1.50;;;;;;;0.66;68.00;98778.70;104656;1304;24168;-28
2021/12/03 09:13:25;;;;;;;5.00;1.10;;;;;;;0.66;67.46;98785.17;104139;1308;22452;-25
2021/12/03 09:20:57;;;;;;;2.50;0.90;;;;;;;1.11;66.91;98787.36;104175;1304;22444;-25
2021/12/03 09:23:32;;;;;;;1.80;0.80;;;;;;;1.03;66.47;98792.36;104405;1303;24321;-29
2021/12/03 09:28:28;;;;;;;2.20;0.60;;;;;;;1.44;64.26;98783.11;104604;1304;24295;-24
2021/12/03 09:30:54;;;;;;;11.00;0.60;;;;;;;1.52;64.35;98780.63;104603;1305;22678;-28
2021/12/03 09:33:23;;;;;;;1.20;0.70;;;;;;;1.28;63.15;98781.36;104320;1308;24255;-25
2021/12/03 09:35:54;;;;;;;2.30;0.50;;;;;;;1.60;63.07;98779.90;104351;1304;22464;-29
2021/12/03 09:38:20;;;;;;;1.90;0.60;;;;;;;1.95;61.35;98778.86;104171;1304;24132;-29
2021/12/03 09:40:46;;;;;;;1.70;0.80;;;;;;;1.78;61.86;98780.09;104136;1308;22538;-25
2021/12/03 09:43:13;;;;;;;4.00;0.60;;;;;;;1.76;61.40;98778.17;104178;1304;24281;-25
2021/12/03 09:45:43;;;;;;;1.20;0.30;;;;;;;2.12;59.94;98774.64;104157;1304;22791;-28
2021/12/03 09:48:19;;;;;;;0.80;0.50;;;;;;;2.19;59.43;98768.44;104327;1309;22725;-28
2021/12/03 09:50:45;;;;;;;2.10;1.40;;;;;;;2.26;58.43;98775.50;104661;1304;22868;-31
2021/12/03 09:55:37;;;;;;;1.20;0.50;;;;;;;2.18;59.02;98775.28;104707;1307;22477;-25
2021/12/03 09:58:14;;;;;;;1.50;0.50;;;;;;;2.22;58.07;98772.18;104878;1311;22470;-28
2021/12/03 10:03:56;;;;;;;1.00;0.30;;;;;;;2.29;56.77;98767.81;104441;1306;22785;-27
2021/12/03 10:16:40;;;;;;;0.70;0.40;;;;;;;2.57;54.41;98758.98;104140;1310;22473;-25
2021/12/03 10:19:22;;;;;;;2.90;0.70;;;;;;;2.72;55.46;98760.99;104144;1304;24255;-29
2021/12/03 10:29:24;;;;;;;1.40;0.70;;;;;;;3.24;52.30;98746.59;104170;1304;22495;-29
2021/12/03 10:37:03;;;;;;;2.00;0.70;;;;;;;3.73;51.03;98739.09;103791;1307;24163;-29
2021/12/03 10:42:25;;;;;;;2.40;0.90;;;;;;;3.65;53.42;98742.98;104294;1309;22590;-27
2021/12/03 10:44:58;;;;;;;2.50;0.60;;;;;;;3.55;52.47;98753.95;104302;1304;22922;-26
2021/12/03 10:47:37;;;;;;;4.10;1.40;;;;;;;3.46;52.11;98753.11;104312;1304;24167;-27
2021/12/03 10:52:37;;;;;;;3.50;1.20;;;;;;;4.57;50.28;98756.31;104266;1304;24162;-31
2021/12/03 10:55:38;;;;;;;5.20;1.50;;;;;;;4.46;50.23;98763.01;104302;1305;22703;-28
2021/12/03 10:58:24;;;;;;;2.00;1.20;;;;;;;4.58;49.99;98756.77;104255;1304;23957;-26
2021/12/03 11:16:24;;;;;;;1.50;0.50;;;;;;;4.89;50.07;98753.30;104125;1304;24162;-29
2021/12/03 11:45:23;;;;;;;4.30;1.80;;;;;;;4.23;52.18;98753.39;104103;1304;24174;-25
2021/12/03 12:09:16;;;;;;;8.80;1.40;;;;;;;4.26;51.71;98748.98;104200;1304;24316;-25
2021/12/03 12:35:05;;;;;;;1.40;0.70;;;;;;;4.62;51.01;98751.23;104218;1308;24219;-26
2021/12/03 12:38:29;;;;;;;1.80;0.90;;;;;;;4.24;52.22;98758.09;104145;1304;22479;-29
2021/12/03 12:46:50;;;;;;;1.00;0.70;;;;;;;4.19;52.42;98764.36;104129;1304;24167;-28
2021/12/03 13:17:45;;;;;;;2.90;1.30;;;;;;;3.95;53.14;98771.89;104222;1304;22486;-25
2021/12/03 13:22:48;;;;;;;4.00;1.70;;;;;;;3.92;52.02;98781.11;104202;1304;24153;-25
2021/12/03 13:25:28;;;;;;;3.80;1.40;;;;;;;3.65;53.34;98782.70;104142;1308;24641;-28
2021/12/03 13:28:34;;;;;;;1.40;0.90;;;;;;;3.70;52.76;98775.39;104167;1304;24244;-25
2021/12/03 14:18:52;;;;;;;4.70;1.70;;;;;;;2.79;56.31;98848.29;104148;1310;22492;-25
2021/12/03 14:37:34;;;;;;;2.80;1.20;;;;;;;1.86;58.97;98853.61;104094;1304;24147;-25
2021/12/03 14:45:24;;;;;;;1.00;0.80;;;;;;;1.65;58.73;98853.18;104131;1307;24207;-28
2021/12/03 14:48:19;;;;;;;11.40;2.10;;;;;;;1.44;59.55;98851.56;103902;1307;24326;-24
2021/12/03 14:55:35;;;;;;;4.10;1.80;;;;;;;0.68;62.60;98873.63;104152;1310;24177;-28
2021/12/03 14:58:06;;;;;;;5.20;1.70;;;;;;;0.51;63.01;98873.88;104157;1304;22576;-26
2021/12/03 15:00:47;;;;;;;3.10;1.30;;;;;;;0.45;63.32;98878.45;104199;1304;24506;-25
2021/12/03 15:05:56;;;;;;;3.60;1.80;;;;;;;0.42;62.77;98880.32;104148;1304;24318;-26
2021/12/03 15:08:27;;;;;;;2.30;1.00;;;;;;;0.24;63.28;98877.98;104154;1308;24187;-25
2021/12/03 15:23:29;;;;;;;5.80;1.20;;;;;;;0.13;62.34;98885.20;104176;1298;24341;-29
2021/12/03 15:26:02;;;;;;;3.50;1.20;;;;;;;0.02;62.80;98892.89;103912;1308;24407;-28
2021/12/03 15:36:18;;;;;;;2.00;1.00;;;;;;;-0.48;63.82;98893.19;104406;1304;22560;-27
2021/12/03 15:56:19;;;;;;;10.00;2.20;;;;;;;-0.64;63.39;98893.80;104190;1304;24276;-27
2021/12/03 16:09:00;;;;;;;15.10;1.50;;;;;;;-0.68;63.56;98908.00;104127;1309;24401;-25
2021/12/03 16:17:03;;;;;;;3.10;1.10;;;;;;;-0.47;62.44;98902.27;104146;1310;24158;-26
2021/12/03 16:27:11;;;;;;;2.90;1.40;;;;;;;-0.46;63.42;98910.29;104209;1310;24170;-25
2021/12/03 16:47:13;;;;;;;10.50;2.30;;;;;;;-0.93;65.51;98905.35;104094;1303;22529;-29
2021/12/03 16:50:03;;;;;;;3.20;1.70;;;;;;;-0.87;65.78;98911.30;104152;1310;24289;-25
2021/12/03 16:52:30;;;;;;;4.00;1.30;;;;;;;-0.70;64.58;98911.69;104145;1310;24138;-28
2021/12/03 16:54:57;;;;;;;5.10;1.30;;;;;;;-0.71;64.26;98913.41;104211;1310;22504;-25